createdAt,value
2019-05-01T00:02:09.948Z,55
2019-05-01T00:07:09.628Z,56
2019-05-01T00:12:10.336Z,56
2019-05-01T00:17:11.078Z,56
2019-05-01T00:22:10.065Z,56
2019-05-01T00:27:10.501Z,56
2019-05-01T00:32:11.193Z,56
2019-05-01T00:37:10.232Z,56
2019-05-01T00:42:09.965Z,56
2019-05-01T00:47:10.635Z,56
2019-05-01T00:52:10.234Z,56
2019-05-01T00:57:09.936Z,57
2019-05-01T01:02:10.465Z,57
2019-05-01T01:07:10.198Z,57
2019-05-01T01:12:10.102Z,57
2019-05-01T01:17:11.007Z,57
2019-05-01T01:22:10.166Z,57
2019-05-01T01:27:10.290Z,57
2019-05-01T01:32:10.791Z,57
2019-05-01T01:37:10.581Z,57
2019-05-01T01:42:09.564Z,57
2019-05-01T01:47:10.223Z,57
2019-05-01T01:52:10.425Z,57
2019-05-01T01:57:11.006Z,57
2019-05-01T02:02:10.390Z,57
2019-05-01T02:07:11.450Z,57
2019-05-01T02:12:10.247Z,57
2019-05-01T02:17:10.369Z,58
2019-05-01T02:22:11.397Z,58
2019-05-01T02:27:09.461Z,58
2019-05-01T02:32:11.370Z,58
2019-05-01T02:37:11.556Z,58
2019-05-01T02:42:10.854Z,58
2019-05-01T02:47:10.143Z,58
2019-05-01T02:52:10.622Z,58
2019-05-01T02:57:09.606Z,58
2019-05-01T03:02:11.128Z,58
2019-05-01T03:07:10.253Z,58
2019-05-01T03:12:10.713Z,58
2019-05-01T03:17:09.463Z,58
2019-05-01T03:22:11.207Z,58
2019-05-01T03:27:10.998Z,58
2019-05-01T03:32:18.033Z,58
2019-05-01T03:37:10.666Z,58
2019-05-01T03:42:10.769Z,58
2019-05-01T03:47:09.605Z,58
2019-05-01T03:52:09.761Z,58
2019-05-01T03:57:12.734Z,58
2019-05-01T04:02:09.594Z,58
2019-05-01T04:07:09.975Z,58
2019-05-01T04:12:11.094Z,58
2019-05-01T04:17:09.898Z,58
2019-05-01T04:22:10.303Z,58
2019-05-01T04:27:10.966Z,58
2019-05-01T04:32:09.347Z,58
2019-05-01T04:37:09.770Z,58
2019-05-01T04:42:10.495Z,58
2019-05-01T04:47:09.818Z,58
2019-05-01T04:52:09.464Z,58
2019-05-01T04:57:10.596Z,58
2019-05-01T05:02:10.924Z,58
2019-05-01T05:07:09.639Z,59
2019-05-01T05:12:09.530Z,58
2019-05-01T05:17:10.544Z,59
2019-05-01T05:22:09.658Z,59
2019-05-01T05:32:09.663Z,59
2019-05-01T05:37:09.129Z,59
2019-05-01T05:42:09.506Z,59
2019-05-01T05:52:09.915Z,59
2019-05-01T05:57:09.999Z,59
2019-05-01T06:02:09.744Z,59
2019-05-01T06:07:09.432Z,59
2019-05-01T06:12:10.202Z,59
2019-05-01T06:17:11.339Z,59
2019-05-01T06:22:11.355Z,59
2019-05-01T06:27:13.667Z,59
2019-05-01T06:32:10.172Z,59
2019-05-01T06:37:09.491Z,60
2019-05-01T06:42:14.651Z,60
2019-05-01T06:47:08.960Z,61
2019-05-01T06:52:09.249Z,61
2019-05-01T06:57:10.218Z,61
2019-05-01T07:02:09.668Z,61
2019-05-01T07:07:24.064Z,61
2019-05-01T07:12:09.736Z,61
2019-05-01T07:17:08.907Z,61
2019-05-01T07:22:09.589Z,61
2019-05-01T07:27:09.730Z,61
2019-05-01T07:37:09.314Z,61
2019-05-01T07:42:12.443Z,60
2019-05-01T07:47:10.126Z,60
2019-05-01T07:52:12.486Z,60
2019-05-01T07:57:09.874Z,60
2019-05-01T08:02:09.345Z,61
2019-05-01T08:07:09.039Z,59
2019-05-01T08:12:09.625Z,59
2019-05-01T08:17:12.834Z,59
2019-05-01T08:22:08.157Z,59
2019-05-01T08:27:10.143Z,59
2019-05-01T08:32:10.446Z,59
2019-05-01T08:37:10.898Z,59
2019-05-01T08:42:09.722Z,59
2019-05-01T08:52:12.525Z,59
2019-05-01T08:57:09.274Z,58
2019-05-01T09:07:10.304Z,57
2019-05-01T09:12:11.930Z,57
2019-05-01T09:17:09.982Z,57
2019-05-01T09:27:09.115Z,56
2019-05-01T09:32:11.852Z,55
2019-05-01T09:37:08.724Z,54
2019-05-01T09:42:09.658Z,54
2019-05-01T09:52:10.220Z,53
2019-05-01T09:57:09.011Z,53
2019-05-01T10:02:09.124Z,52
2019-05-01T10:07:10.251Z,52
2019-05-01T10:12:11.642Z,52
2019-05-01T10:17:08.585Z,52
2019-05-01T10:27:09.789Z,51
2019-05-01T10:32:09.968Z,50
2019-05-01T10:37:09.596Z,50
2019-05-01T10:42:10.415Z,49
2019-05-01T10:47:09.973Z,49
2019-05-01T10:52:14.493Z,49
2019-05-01T10:57:09.351Z,48
2019-05-01T11:07:08.872Z,48
2019-05-01T11:17:09.504Z,47
2019-05-01T11:22:07.838Z,47
2019-05-01T11:27:09.882Z,47
2019-05-01T11:32:08.891Z,47
2019-05-01T11:37:10.727Z,46
2019-05-01T11:42:10.505Z,46
2019-05-01T11:47:10.266Z,46
2019-05-01T11:52:10.372Z,46
2019-05-01T11:57:09.109Z,45
2019-05-01T12:02:09.875Z,45
2019-05-01T12:07:09.832Z,45
2019-05-01T12:12:07.859Z,44
2019-05-01T12:17:10.235Z,44
2019-05-01T12:32:10.934Z,43
2019-05-01T12:37:09.685Z,43
2019-05-01T12:42:09.787Z,43
2019-05-01T12:47:09.373Z,42
2019-05-01T12:52:10.619Z,42
2019-05-01T12:57:09.996Z,42
2019-05-01T13:02:08.935Z,42
2019-05-01T13:12:09.425Z,41
2019-05-01T13:17:09.791Z,41
2019-05-01T13:22:10.118Z,41
2019-05-01T13:27:10.587Z,41
2019-05-01T13:32:09.979Z,41
2019-05-01T13:37:09.745Z,40
2019-05-01T13:42:10.094Z,40
2019-05-01T13:47:09.818Z,40
2019-05-01T13:52:08.765Z,40
2019-05-01T13:57:09.825Z,39
2019-05-01T14:02:09.729Z,39
2019-05-01T14:07:16.225Z,38
2019-05-01T14:17:09.653Z,37
2019-05-01T14:22:08.684Z,36
2019-05-01T14:32:10.288Z,35
2019-05-01T14:42:08.862Z,35
2019-05-01T14:52:09.679Z,35
2019-05-01T14:57:08.761Z,35
2019-05-01T15:12:07.803Z,34
2019-05-01T15:17:09.733Z,34
2019-05-01T15:22:08.854Z,34
2019-05-01T15:32:10.971Z,34
2019-05-01T15:37:09.206Z,34
2019-05-01T15:47:09.082Z,34
2019-05-01T15:52:10.358Z,34
2019-05-01T15:57:10.134Z,34
2019-05-01T16:02:08.588Z,33
2019-05-01T16:07:09.728Z,33
2019-05-01T16:12:10.702Z,33
2019-05-01T16:27:10.074Z,33
2019-05-01T16:37:09.673Z,33
2019-05-01T16:42:09.338Z,33
2019-05-01T16:47:10.665Z,33
2019-05-01T17:02:10.424Z,27
2019-05-01T17:07:10.243Z,26
2019-05-01T17:17:09.832Z,24
2019-05-01T17:27:09.746Z,25
2019-05-01T17:32:09.416Z,27
2019-05-01T17:37:10.364Z,27
2019-05-01T17:42:10.528Z,26
2019-05-01T17:47:10.387Z,25
2019-05-01T17:52:09.457Z,25
2019-05-01T17:57:08.689Z,25
2019-05-01T18:02:11.355Z,25
2019-05-01T18:12:10.867Z,26
2019-05-01T18:17:10.794Z,27
2019-05-01T18:22:10.062Z,28
2019-05-01T18:32:10.148Z,30
2019-05-01T18:37:09.926Z,30
2019-05-01T18:42:10.289Z,31
2019-05-01T18:47:09.238Z,32
2019-05-01T18:52:10.563Z,33
2019-05-01T19:07:09.311Z,34
2019-05-01T19:12:10.617Z,35
2019-05-01T19:17:09.099Z,36
2019-05-01T19:22:10.160Z,36
2019-05-01T19:27:09.285Z,37
2019-05-01T19:32:09.577Z,38
2019-05-01T19:37:09.736Z,38
2019-05-01T19:57:09.440Z,41
2019-05-01T20:02:09.817Z,41
2019-05-01T20:07:10.517Z,42
2019-05-01T20:12:10.941Z,43
2019-05-01T20:17:10.242Z,43
2019-05-01T20:27:10.487Z,44
2019-05-01T20:32:09.937Z,44
2019-05-01T20:37:10.570Z,45
2019-05-01T20:42:09.911Z,45
2019-05-01T20:47:10.153Z,46
2019-05-01T20:52:10.125Z,46
2019-05-01T20:57:13.548Z,47
2019-05-01T21:02:09.370Z,48
2019-05-01T21:07:10.688Z,48
2019-05-01T21:12:09.720Z,49
2019-05-01T21:17:13.408Z,49
2019-05-01T21:22:10.084Z,49
2019-05-01T21:27:10.156Z,50
2019-05-01T21:32:10.113Z,50
2019-05-01T21:37:09.907Z,50
2019-05-01T21:42:13.599Z,51
2019-05-01T21:47:09.336Z,51
2019-05-01T21:52:09.538Z,51
2019-05-01T21:57:12.063Z,52
2019-05-01T22:02:10.077Z,52
2019-05-01T22:07:09.774Z,53
2019-05-01T22:12:13.068Z,53
2019-05-01T22:17:09.527Z,54
2019-05-01T22:22:10.972Z,54
2019-05-01T22:27:10.816Z,54
2019-05-01T22:32:10.928Z,55
2019-05-01T22:37:08.651Z,55
2019-05-01T22:42:10.594Z,56
2019-05-01T22:47:14.978Z,56
2019-05-01T22:52:10.743Z,56
2019-05-01T22:57:10.883Z,56
2019-05-01T23:02:10.851Z,57
2019-05-01T23:07:11.780Z,57
2019-05-01T23:12:11.044Z,58
2019-05-01T23:17:10.641Z,58
2019-05-01T23:22:10.003Z,59
2019-05-01T23:27:11.214Z,59
2019-05-01T23:32:10.656Z,59
2019-05-01T23:37:10.896Z,60
2019-05-01T23:42:10.979Z,60
2019-05-01T23:47:10.501Z,60
2019-05-01T23:52:10.006Z,61
2019-05-01T23:57:14.899Z,61
